createdAt,value
2022-08-19T00:00:42.382Z,5.88
2022-08-19T00:02:50.659Z,5.88
2022-08-19T00:04:52.963Z,5.60
2022-08-19T00:06:55.275Z,5.70
2022-08-19T00:08:59.402Z,5.35
2022-08-19T00:11:01.422Z,5.95
2022-08-19T00:13:03.731Z,6.10
2022-08-19T00:15:13.418Z,5.97
2022-08-19T00:17:16.174Z,6.00
2022-08-19T00:19:18.448Z,5.70
2022-08-19T00:21:20.863Z,6.45
2022-08-19T00:23:23.123Z,5.88
2022-08-19T00:25:30.064Z,6.10
2022-08-19T00:27:33.389Z,6.20
2022-08-19T00:29:35.674Z,6.15
2022-08-19T00:31:37.872Z,5.65
2022-08-19T00:33:40.175Z,5.85
2022-08-19T00:35:55.908Z,6.55
2022-08-19T00:38:01.240Z,5.97
2022-08-19T00:40:06.379Z,6.18
2022-08-19T00:42:08.483Z,5.75
2022-08-19T00:44:27.171Z,5.85
2022-08-19T00:46:31.009Z,6.20
2022-08-19T00:48:35.094Z,6.22
2022-08-19T00:50:37.489Z,6.00
2022-08-19T00:52:54.939Z,6.40
2022-08-19T00:54:59.231Z,6.28
2022-08-19T00:57:04.262Z,5.75
2022-08-19T00:59:06.965Z,5.60
2022-08-19T01:01:09.303Z,6.30
2022-08-19T01:03:19.336Z,6.28
2022-08-19T01:05:28.073Z,5.93
2022-08-19T01:07:35.710Z,5.70
2022-08-19T01:09:40.520Z,5.90
2022-08-19T01:11:45.841Z,5.72
2022-08-19T01:13:49.090Z,6.60
2022-08-19T01:16:02.580Z,5.82
2022-08-19T01:18:12.055Z,5.78
2022-08-19T01:20:20.691Z,5.80
2022-08-19T01:22:28.719Z,6.60
2022-08-19T01:24:32.786Z,5.57
2022-08-19T01:26:42.064Z,5.40
2022-08-19T01:28:47.415Z,5.57
2022-08-19T01:30:50.899Z,5.55
2022-08-19T01:32:54.880Z,5.13
2022-08-19T01:34:57.115Z,6.30
2022-08-19T01:36:59.312Z,5.72
2022-08-19T01:39:05.700Z,5.82
2022-08-19T01:41:09.741Z,5.65
2022-08-19T01:43:13.631Z,5.70
2022-08-19T01:45:15.870Z,6.10
2022-08-19T01:47:18.058Z,6.07
2022-08-19T01:49:23.474Z,5.15
2022-08-19T01:51:25.593Z,5.80
2022-08-19T01:53:33.657Z,6.45
2022-08-19T01:55:42.188Z,6.63
2022-08-19T01:57:49.155Z,6.10
2022-08-19T01:59:51.304Z,6.05
2022-08-19T02:01:53.950Z,6.20
2022-08-19T02:03:56.878Z,7.40
2022-08-19T02:06:03.080Z,6.45
2022-08-19T02:08:07.065Z,6.80
2022-08-19T02:10:16.536Z,7.10
2022-08-19T02:12:18.811Z,6.22
2022-08-19T02:14:21.202Z,6.32
2022-08-19T02:16:24.363Z,7.05
2022-08-19T02:18:27.956Z,6.90
2022-08-19T02:20:30.492Z,5.85
2022-08-19T02:22:32.594Z,6.85
2022-08-19T02:24:34.651Z,7.38
2022-08-19T02:26:37.080Z,7.07
2022-08-19T02:28:40.855Z,6.30
2022-08-19T02:30:44.790Z,6.30
2022-08-19T02:32:47.640Z,6.97
2022-08-19T02:34:49.729Z,6.75
2022-08-19T02:36:52.851Z,6.60
2022-08-19T02:38:55.988Z,7.10
2022-08-19T02:41:02.072Z,7.20
2022-08-19T02:43:10.220Z,6.57
2022-08-19T02:45:16.361Z,6.80
2022-08-19T02:47:20.043Z,7.05
2022-08-19T02:49:22.133Z,6.95
2022-08-19T02:51:41.839Z,6.82
2022-08-19T02:53:44.033Z,7.32
2022-08-19T02:55:48.194Z,7.50
2022-08-19T02:57:50.557Z,7.30
2022-08-19T02:59:54.546Z,7.25
2022-08-19T03:01:56.629Z,7.30
2022-08-19T03:04:02.389Z,6.82
2022-08-19T03:06:15.369Z,7.00
2022-08-19T03:08:17.464Z,7.00
2022-08-19T03:10:19.962Z,7.10
2022-08-19T03:12:22.064Z,7.50
2022-08-19T03:14:24.093Z,7.35
2022-08-19T03:16:33.389Z,7.57
2022-08-19T03:18:35.867Z,7.35
2022-08-19T03:20:53.184Z,7.57
2022-08-19T03:22:57.685Z,7.00
2022-08-19T03:24:59.853Z,7.35
2022-08-19T03:27:02.102Z,6.70
2022-08-19T03:29:05.901Z,7.55
2022-08-19T03:31:41.842Z,7.35
2022-08-19T03:33:35.605Z,7.20
2022-08-19T03:35:38.814Z,7.38
2022-08-19T03:37:41.068Z,7.38
2022-08-19T03:39:43.445Z,7.57
2022-08-19T03:41:48.791Z,7.07
2022-08-19T03:43:51.454Z,7.65
2022-08-19T03:46:15.556Z,7.32
2022-08-19T03:48:17.782Z,6.60
2022-08-19T03:50:20.193Z,8.18
2022-08-19T03:52:22.234Z,7.40
2022-08-19T03:54:26.631Z,7.97
2022-08-19T03:56:30.086Z,6.60
2022-08-19T03:58:32.134Z,7.78
2022-08-19T04:00:34.456Z,7.88
2022-08-19T04:02:36.472Z,8.55
2022-08-19T04:04:45.135Z,7.90
2022-08-19T04:06:47.470Z,8.25
2022-08-19T04:08:53.396Z,8.10
2022-08-19T04:10:55.868Z,8.15
2022-08-19T04:12:58.232Z,8.10
2022-08-19T04:15:00.506Z,7.85
2022-08-19T04:17:05.111Z,8.30
2022-08-19T04:19:08.159Z,8.13
2022-08-19T04:21:25.455Z,8.13
2022-08-19T04:23:28.117Z,8.02
2022-08-19T04:25:38.412Z,8.20
2022-08-19T04:27:43.164Z,7.50
2022-08-19T04:29:48.297Z,8.00
2022-08-19T04:31:50.825Z,7.43
2022-08-19T04:34:01.317Z,8.38
2022-08-19T04:36:03.730Z,8.40
2022-08-19T04:38:07.225Z,6.97
2022-08-19T04:40:10.107Z,8.52
2022-08-19T04:42:12.744Z,8.10
2022-08-19T04:44:15.934Z,8.25
2022-08-19T04:46:38.129Z,7.88
2022-08-19T04:50:55.043Z,7.25
2022-08-19T04:52:57.643Z,7.60
2022-08-19T04:54:59.982Z,7.97
2022-08-19T04:57:02.296Z,7.47
2022-08-19T04:59:04.533Z,7.78
2022-08-19T05:01:06.618Z,7.20
2022-08-19T05:03:10.524Z,7.40
2022-08-19T05:05:12.693Z,7.85
2022-08-19T05:07:15.170Z,7.68
2022-08-19T05:09:17.934Z,7.97
2022-08-19T05:11:26.735Z,8.60
2022-08-19T05:13:28.950Z,8.30
2022-08-19T05:15:32.210Z,8.10
2022-08-19T05:17:38.326Z,7.85
2022-08-19T05:19:40.791Z,8.10
2022-08-19T05:21:44.351Z,8.15
2022-08-19T05:23:46.453Z,8.63
2022-08-19T05:25:48.695Z,8.40
2022-08-19T05:27:50.995Z,8.73
2022-08-19T05:29:53.033Z,7.95
2022-08-19T05:31:56.235Z,8.18
2022-08-19T05:33:58.750Z,8.60
2022-08-19T05:36:03.516Z,8.23
2022-08-19T05:38:06.748Z,8.15
2022-08-19T05:40:11.115Z,7.72
2022-08-19T05:42:13.626Z,8.45
2022-08-19T05:44:17.134Z,8.38
2022-08-19T05:46:27.792Z,7.90
2022-08-19T05:48:30.372Z,8.93
2022-08-19T05:50:32.424Z,7.80
2022-08-19T05:52:34.819Z,8.35
2022-08-19T05:54:41.873Z,8.15
2022-08-19T05:56:45.569Z,8.02
2022-08-19T05:58:47.930Z,7.88
2022-08-19T06:00:50.047Z,8.32
2022-08-19T06:02:53.125Z,8.63
2022-08-19T06:04:55.643Z,8.30
2022-08-19T06:06:57.676Z,8.35
2022-08-19T06:08:59.903Z,7.85
2022-08-19T06:11:20.626Z,7.97
2022-08-19T06:13:23.244Z,8.07
2022-08-19T06:15:25.531Z,7.18
2022-08-19T06:17:28.050Z,8.10
2022-08-19T06:19:31.915Z,7.95
2022-08-19T06:21:35.031Z,7.35
2022-08-19T06:23:44.604Z,7.75
2022-08-19T06:25:46.730Z,7.65
2022-08-19T06:28:13.525Z,7.85
2022-08-19T06:30:12.133Z,7.57
2022-08-19T06:32:17.816Z,7.78
2022-08-19T06:34:20.883Z,8.05
2022-08-19T06:36:33.703Z,8.32
2022-08-19T06:38:35.881Z,8.05
2022-08-19T06:40:38.037Z,7.38
2022-08-19T06:42:44.384Z,7.80
2022-08-19T06:44:56.765Z,8.35
2022-08-19T06:46:59.931Z,8.02
2022-08-19T06:49:02.613Z,7.55
2022-08-19T06:51:05.273Z,7.43
2022-08-19T06:53:10.951Z,8.15
2022-08-19T06:55:14.912Z,8.00
2022-08-19T06:57:17.314Z,7.72
2022-08-19T06:59:23.605Z,7.97
2022-08-19T07:01:25.974Z,8.05
2022-08-19T07:03:34.633Z,6.97
2022-08-19T07:05:45.340Z,7.45
2022-08-19T07:07:48.303Z,7.50
2022-08-19T07:09:59.355Z,7.53
2022-08-19T07:12:07.107Z,7.38
2022-08-19T07:14:19.148Z,7.40
2022-08-19T07:16:29.249Z,8.23
2022-08-19T07:18:32.614Z,7.65
2022-08-19T07:20:35.423Z,7.80
2022-08-19T07:22:39.365Z,7.53
2022-08-19T07:24:50.969Z,7.65
2022-08-19T07:26:57.565Z,6.95
2022-08-19T07:29:00.663Z,7.40
2022-08-19T07:31:02.809Z,7.72
2022-08-19T07:33:05.571Z,6.78
2022-08-19T07:35:08.935Z,7.45
2022-08-19T07:37:11.822Z,6.85
2022-08-19T07:39:43.527Z,6.72
2022-08-19T07:41:46.963Z,7.18
2022-08-19T07:43:50.324Z,6.50
2022-08-19T07:45:55.035Z,6.72
2022-08-19T07:47:57.355Z,5.97
2022-08-19T07:49:59.717Z,6.63
2022-08-19T07:52:09.161Z,6.72
2022-08-19T07:54:11.803Z,5.93
2022-08-19T07:56:15.387Z,6.40
2022-08-19T07:58:22.343Z,5.97
2022-08-19T08:00:24.958Z,6.47
2022-08-19T08:02:27.163Z,6.07
2022-08-19T08:04:32.383Z,6.10
2022-08-19T08:06:34.663Z,5.65
2022-08-19T08:08:36.784Z,6.20
2022-08-19T08:10:39.394Z,6.20
2022-08-19T08:12:41.992Z,6.47
2022-08-19T08:14:55.943Z,6.70
2022-08-19T08:16:59.241Z,6.20
2022-08-19T08:19:01.653Z,6.03
2022-08-19T08:21:05.523Z,6.80
2022-08-19T08:23:07.993Z,6.65
2022-08-19T08:25:21.743Z,6.32
2022-08-19T08:27:27.154Z,6.30
2022-08-19T08:29:35.053Z,6.30
2022-08-19T08:31:37.613Z,6.68
2022-08-19T08:33:39.803Z,5.97
2022-08-19T08:35:45.163Z,6.03
2022-08-19T08:37:51.183Z,6.38
2022-08-19T08:39:53.570Z,5.70
2022-08-19T08:42:28.254Z,6.05
2022-08-19T08:47:03.794Z,6.30
2022-08-19T08:49:28.073Z,6.18
2022-08-19T08:51:59.265Z,6.10
2022-08-19T08:54:07.890Z,6.43
2022-08-19T08:56:12.745Z,6.20
2022-08-19T08:58:25.443Z,6.20
2022-08-19T09:00:34.433Z,6.18
2022-08-19T09:02:36.868Z,6.40
2022-08-19T09:04:39.834Z,6.18
2022-08-19T09:07:02.663Z,5.90
2022-08-19T09:09:43.433Z,6.07
2022-08-19T09:12:17.790Z,6.05
2022-08-19T09:14:55.124Z,6.25
2022-08-19T09:16:59.150Z,5.85
2022-08-19T09:19:07.972Z,5.47
2022-08-19T09:21:11.212Z,6.22
2022-08-19T09:23:13.383Z,5.63
2022-08-19T09:25:24.743Z,6.00
2022-08-19T09:27:42.539Z,5.90
2022-08-19T09:29:48.623Z,6.05
2022-08-19T09:31:52.365Z,6.00
2022-08-19T09:33:55.628Z,6.00
2022-08-19T09:36:12.101Z,6.03
2022-08-19T09:38:14.322Z,5.53
2022-08-19T09:40:18.664Z,5.18
2022-08-19T09:42:30.209Z,5.15
2022-08-19T09:44:33.377Z,5.22
2022-08-19T09:49:08.322Z,5.60
2022-08-19T09:51:14.693Z,5.70
2022-08-19T09:53:16.947Z,5.40
2022-08-19T09:55:21.442Z,5.20
2022-08-19T09:57:26.872Z,5.30
2022-08-19T09:59:29.702Z,4.78
2022-08-19T10:01:35.633Z,4.72
2022-08-19T10:03:39.241Z,4.50
2022-08-19T10:05:42.438Z,4.82
2022-08-19T10:07:44.962Z,5.35
2022-08-19T10:12:20.182Z,4.85
2022-08-19T10:14:22.464Z,4.80
2022-08-19T10:16:26.106Z,5.00
2022-08-19T10:18:33.102Z,4.97
2022-08-19T10:21:06.013Z,4.75
2022-08-19T10:26:09.802Z,4.80
2022-08-19T10:28:12.658Z,4.50
2022-08-19T10:30:14.876Z,4.60
2022-08-19T10:32:34.031Z,4.60
2022-08-19T10:34:48.985Z,4.30
2022-08-19T10:36:56.105Z,4.10
2022-08-19T10:39:02.475Z,4.32
2022-08-19T10:41:15.661Z,3.75
2022-08-19T10:43:17.942Z,4.18
2022-08-19T10:45:52.450Z,3.60
2022-08-19T10:47:55.854Z,3.67
2022-08-19T10:49:59.112Z,3.90
2022-08-19T10:52:12.174Z,3.85
2022-08-19T10:54:38.481Z,3.95
2022-08-19T10:56:54.831Z,4.30
2022-08-19T10:59:00.772Z,3.97
2022-08-19T11:01:08.729Z,4.00
2022-08-19T11:05:40.075Z,3.90
2022-08-19T11:08:28.611Z,3.70
2022-08-19T11:10:35.576Z,3.65
2022-08-19T11:12:45.074Z,3.67
2022-08-19T11:14:50.953Z,3.70
2022-08-19T11:16:58.133Z,3.65
2022-08-19T11:20:04.488Z,3.80
2022-08-19T11:22:10.819Z,3.85
2022-08-19T11:28:54.723Z,3.47
2022-08-19T11:31:05.212Z,3.33
2022-08-19T11:36:26.533Z,3.80
2022-08-19T11:39:21.282Z,3.80
2022-08-19T11:41:28.574Z,3.22
2022-08-19T11:43:37.607Z,3.70
2022-08-19T11:45:43.601Z,3.58
2022-08-19T11:47:53.824Z,3.80
2022-08-19T11:50:03.752Z,3.67
2022-08-19T11:52:06.173Z,3.30
2022-08-19T11:54:17.263Z,3.20
2022-08-19T11:56:21.401Z,3.65
2022-08-19T11:58:28.161Z,3.55
2022-08-19T12:00:40.922Z,4.07
2022-08-19T12:02:53.020Z,3.83
2022-08-19T12:04:56.480Z,3.90
2022-08-19T12:07:09.282Z,4.15
2022-08-19T12:09:12.302Z,3.80
2022-08-19T12:11:27.832Z,3.60
2022-08-19T12:13:38.633Z,4.07
2022-08-19T12:15:59.673Z,3.80
2022-08-19T12:18:09.109Z,3.90
2022-08-19T12:20:13.661Z,3.90
2022-08-19T12:22:45.495Z,3.92
2022-08-19T12:25:12.081Z,3.80
2022-08-19T12:27:31.906Z,3.80
2022-08-19T12:30:25.261Z,3.65
2022-08-19T12:32:28.371Z,3.20
2022-08-19T12:34:32.610Z,3.60
2022-08-19T12:36:42.064Z,3.33
2022-08-19T12:38:53.967Z,3.35
2022-08-19T12:41:00.198Z,3.60
2022-08-19T12:45:23.081Z,3.75
2022-08-19T12:47:25.332Z,3.60
2022-08-19T12:49:52.465Z,3.47
2022-08-19T12:51:58.742Z,3.20
2022-08-19T12:54:02.472Z,3.40
2022-08-19T12:56:21.094Z,3.10
2022-08-19T12:58:27.285Z,3.17
2022-08-19T13:00:36.390Z,3.10
2022-08-19T13:02:40.531Z,2.95
2022-08-19T13:04:42.922Z,3.10
2022-08-19T13:06:45.344Z,3.35
2022-08-19T13:08:48.051Z,3.25
2022-08-19T13:10:50.911Z,2.90
2022-08-19T13:12:53.331Z,3.35
2022-08-19T13:14:57.302Z,3.10
2022-08-19T13:17:00.181Z,2.80
2022-08-19T13:19:02.631Z,3.00
2022-08-19T13:21:07.074Z,3.03
2022-08-19T13:23:10.562Z,3.03
2022-08-19T13:25:15.594Z,3.03
2022-08-19T13:27:18.213Z,2.90
2022-08-19T13:29:20.725Z,3.10
2022-08-19T13:31:25.430Z,3.45
2022-08-19T13:33:27.653Z,3.00
2022-08-19T13:35:43.222Z,3.35
2022-08-19T13:37:48.674Z,3.15
2022-08-19T13:39:50.873Z,2.90
2022-08-19T13:41:53.344Z,2.95
2022-08-19T13:43:55.841Z,3.20
2022-08-19T13:45:58.016Z,3.40
2022-08-19T13:48:02.659Z,3.55
2022-08-19T13:50:07.393Z,3.00
2022-08-19T13:52:09.642Z,3.15
2022-08-19T13:54:13.143Z,3.15
2022-08-19T13:56:20.181Z,3.10
2022-08-19T13:58:25.249Z,2.92
2022-08-19T14:00:33.206Z,2.80
2022-08-19T14:02:35.542Z,2.97
2022-08-19T14:04:38.402Z,3.08
2022-08-19T14:06:40.882Z,2.85
2022-08-19T14:08:46.277Z,2.95
2022-08-19T14:10:48.964Z,3.08
2022-08-19T14:12:56.178Z,2.80
2022-08-19T14:14:58.723Z,3.05
2022-08-19T14:17:01.974Z,2.95
2022-08-19T14:19:04.823Z,3.10
2022-08-19T14:21:07.717Z,2.95
2022-08-19T14:23:10.293Z,2.80
2022-08-19T14:25:20.357Z,3.10
2022-08-19T14:30:44.113Z,2.95
2022-08-19T14:35:59.501Z,3.00
2022-08-19T14:38:22.101Z,2.75
2022-08-19T14:40:34.974Z,2.88
2022-08-19T14:42:37.185Z,2.70
2022-08-19T14:44:45.363Z,2.65
2022-08-19T14:46:49.623Z,3.13
2022-08-19T14:48:54.844Z,2.80
2022-08-19T14:50:58.914Z,2.78
2022-08-19T14:53:09.388Z,2.80
2022-08-19T14:55:17.702Z,2.60
2022-08-19T14:57:20.073Z,2.90
2022-08-19T14:59:22.363Z,2.75
2022-08-19T15:01:24.838Z,2.97
2022-08-19T15:03:30.543Z,3.03
2022-08-19T15:05:32.733Z,2.70
2022-08-19T15:07:35.023Z,3.10
2022-08-19T15:09:38.047Z,2.42
2022-08-19T15:11:40.414Z,2.97
2022-08-19T15:13:44.444Z,2.45
2022-08-19T15:15:47.095Z,2.80
2022-08-19T15:17:50.204Z,2.75
2022-08-19T15:19:53.724Z,3.22
2022-08-19T15:22:03.635Z,2.80
2022-08-19T15:24:22.243Z,3.28
2022-08-19T15:26:27.184Z,2.85
2022-08-19T15:28:29.603Z,3.10
2022-08-19T15:30:32.361Z,2.80
2022-08-19T15:32:39.993Z,2.97
2022-08-19T15:34:42.494Z,3.10
2022-08-19T15:36:44.704Z,3.47
2022-08-19T15:38:46.785Z,3.10
2022-08-19T15:40:51.509Z,3.05
2022-08-19T15:42:54.585Z,3.17
2022-08-19T15:44:58.292Z,3.00
2022-08-19T15:47:03.403Z,2.90
2022-08-19T15:49:07.428Z,3.97
2022-08-19T15:51:09.702Z,3.08
2022-08-19T15:53:12.376Z,3.08
2022-08-19T15:55:16.095Z,3.30
2022-08-19T15:57:36.096Z,3.53
2022-08-19T16:00:02.582Z,2.90
2022-08-19T16:02:12.145Z,3.30
2022-08-19T16:04:16.327Z,3.20
2022-08-19T16:06:18.973Z,2.95
2022-08-19T16:08:24.523Z,3.17
2022-08-19T16:10:28.174Z,3.25
2022-08-19T16:12:31.183Z,3.35
2022-08-19T16:14:40.596Z,3.60
2022-08-19T16:16:44.213Z,4.25
2022-08-19T16:32:14.463Z,4.10
2022-08-19T16:34:21.262Z,4.07
2022-08-19T16:36:23.755Z,4.20
2022-08-19T16:38:28.843Z,4.22
2022-08-19T16:40:31.318Z,4.20
2022-08-19T16:42:36.574Z,4.60
2022-08-19T16:44:58.413Z,4.55
2022-08-19T16:47:00.892Z,4.70
2022-08-19T16:49:06.103Z,4.70
2022-08-19T16:51:18.282Z,4.80
2022-08-19T16:53:24.979Z,5.38
2022-08-19T16:55:31.605Z,5.47
2022-08-19T16:57:33.993Z,6.13
2022-08-19T16:59:45.014Z,6.30
2022-08-19T17:01:51.616Z,6.30
2022-08-19T17:03:55.344Z,6.28
2022-08-19T17:06:00.670Z,6.25
2022-08-19T17:08:03.223Z,7.00
2022-08-19T17:10:06.543Z,7.75
2022-08-19T17:12:09.363Z,7.28
2022-08-19T17:15:07.996Z,7.13
2022-08-19T17:17:11.049Z,8.05
2022-08-19T17:19:13.405Z,7.90
2022-08-19T17:21:15.513Z,8.45
2022-08-19T17:23:20.445Z,8.07
2022-08-19T17:25:43.383Z,8.57
2022-08-19T17:27:45.454Z,9.02
2022-08-19T17:29:47.993Z,9.10
2022-08-19T17:31:50.504Z,9.55
2022-08-19T17:33:52.873Z,9.40
2022-08-19T17:35:57.385Z,9.65
2022-08-19T17:38:27.944Z,10.40
2022-08-19T17:46:18.151Z,9.77
2022-08-19T17:48:20.721Z,10.25
2022-08-19T17:50:23.333Z,10.00
2022-08-19T17:52:28.888Z,10.55
2022-08-19T17:54:33.615Z,10.90
2022-08-19T17:56:36.284Z,10.60
2022-08-19T17:58:39.360Z,10.60
2022-08-19T18:00:54.050Z,10.82
2022-08-19T18:03:00.273Z,10.82
2022-08-19T18:05:04.513Z,10.48
2022-08-19T18:07:06.832Z,10.90
2022-08-19T18:09:09.185Z,11.05
2022-08-19T18:11:12.254Z,10.40
2022-08-19T18:13:17.486Z,10.88
2022-08-19T18:15:22.128Z,9.68
2022-08-19T18:17:24.794Z,10.35
2022-08-19T18:19:40.682Z,11.23
2022-08-19T18:21:43.463Z,9.77
2022-08-19T18:23:47.553Z,10.30
2022-08-19T18:26:21.563Z,10.75
2022-08-19T18:29:06.617Z,10.40
2022-08-19T18:31:15.734Z,10.75
2022-08-19T18:40:07.657Z,10.65
2022-08-19T18:42:40.882Z,10.68
2022-08-19T18:46:02.597Z,11.05
2022-08-19T19:10:45.234Z,7.57
2022-08-19T19:15:45.823Z,6.05
2022-08-19T19:17:55.221Z,5.60
2022-08-19T19:20:04.784Z,6.07
2022-08-19T19:22:07.132Z,6.93
2022-08-19T19:24:40.282Z,6.35
2022-08-19T19:37:05.526Z,5.40
2022-08-19T19:39:45.838Z,5.65
2022-08-19T19:42:26.493Z,5.72
2022-08-19T19:51:57.154Z,5.30
2022-08-19T19:54:00.242Z,5.40
2022-08-19T19:56:17.152Z,5.05
2022-08-19T20:00:36.818Z,5.20
2022-08-19T20:02:43.310Z,6.13
2022-08-19T20:04:51.443Z,5.25
2022-08-19T20:06:59.012Z,5.28
2022-08-19T20:09:10.177Z,5.85
2022-08-19T20:11:34.051Z,4.97
2022-08-19T20:13:42.013Z,5.43
2022-08-19T20:15:44.775Z,5.50
2022-08-19T20:17:56.167Z,5.47
2022-08-19T20:20:06.533Z,5.65
2022-08-19T20:22:09.653Z,5.80
2022-08-19T20:24:27.701Z,5.80
2022-08-19T20:26:33.823Z,5.55
2022-08-19T20:28:36.650Z,5.43
2022-08-19T20:30:42.018Z,5.50
2022-08-19T20:32:51.736Z,5.78
2022-08-19T20:34:54.779Z,5.40
2022-08-19T20:36:57.008Z,6.32
2022-08-19T20:38:59.224Z,6.00
2022-08-19T20:41:03.543Z,5.53
2022-08-19T20:43:14.402Z,5.50
2022-08-19T20:45:32.371Z,5.53
2022-08-19T20:47:41.145Z,6.05
2022-08-19T20:49:45.955Z,5.82
2022-08-19T20:51:48.676Z,5.53
2022-08-19T20:53:58.146Z,5.65
2022-08-19T20:56:02.254Z,6.00
2022-08-19T20:58:05.523Z,5.88
2022-08-19T21:00:09.607Z,5.70
2022-08-19T21:02:12.144Z,5.72
2022-08-19T21:04:16.092Z,5.55
2022-08-19T21:06:23.175Z,5.88
2022-08-19T21:08:27.980Z,5.70
2022-08-19T21:10:31.182Z,5.47
2022-08-19T21:12:35.813Z,5.85
2022-08-19T21:14:44.290Z,5.90
2022-08-19T21:16:47.095Z,6.20
2022-08-19T21:18:57.445Z,6.53
2022-08-19T21:21:00.325Z,6.25
2022-08-19T21:23:17.092Z,6.13
2022-08-19T21:25:20.655Z,6.03
2022-08-19T21:27:23.372Z,5.47
2022-08-19T21:29:25.752Z,5.53
2022-08-19T21:31:28.120Z,5.03
2022-08-19T21:33:31.901Z,5.35
2022-08-19T21:35:34.362Z,4.93
2022-08-19T21:37:38.232Z,5.30
2022-08-19T21:39:46.845Z,4.95
2022-08-19T21:41:54.518Z,4.97
2022-08-19T21:44:02.893Z,5.13
2022-08-19T21:46:13.675Z,4.85
2022-08-19T21:48:16.220Z,4.80
2022-08-19T21:50:18.914Z,4.35
2022-08-19T21:52:23.788Z,4.60
2022-08-19T21:54:25.966Z,4.50
2022-08-19T21:56:28.499Z,4.47
2022-08-19T21:58:30.975Z,4.90
2022-08-19T22:00:35.846Z,4.85
2022-08-19T22:02:40.727Z,5.00
2022-08-19T22:04:50.577Z,4.57
2022-08-19T22:06:52.761Z,5.00
2022-08-19T22:08:55.611Z,5.15
2022-08-19T22:10:58.652Z,5.20
2022-08-19T22:13:01.783Z,5.70
2022-08-19T22:15:10.354Z,5.80
2022-08-19T22:17:18.583Z,6.15
2022-08-19T22:19:21.870Z,5.68
2022-08-19T22:21:29.381Z,6.50
2022-08-19T22:23:50.582Z,6.15
2022-08-19T22:25:52.711Z,6.95
2022-08-19T22:27:57.678Z,6.15
2022-08-19T22:30:10.806Z,6.07
2022-08-19T22:32:26.973Z,6.55
2022-08-19T22:34:31.041Z,6.22
2022-08-19T22:36:34.713Z,6.18
2022-08-19T22:38:42.537Z,6.05
2022-08-19T22:40:52.132Z,6.40
2022-08-19T22:43:11.011Z,6.68
2022-08-19T22:45:19.891Z,6.28
2022-08-19T22:47:23.458Z,6.72
2022-08-19T22:49:29.652Z,6.60
2022-08-19T22:51:31.694Z,6.20
2022-08-19T22:53:42.353Z,6.15
2022-08-19T22:55:44.461Z,6.60
2022-08-19T22:57:47.514Z,6.43
2022-08-19T23:00:15.892Z,6.55
2022-08-19T23:02:51.935Z,7.07
2022-08-19T23:10:27.447Z,5.60
2022-08-19T23:12:50.975Z,5.45
2022-08-19T23:17:16.265Z,5.22
2022-08-19T23:19:23.828Z,5.60
2022-08-19T23:21:26.473Z,5.40
2022-08-19T23:23:34.751Z,5.05
2022-08-19T23:25:47.732Z,5.30
2022-08-19T23:28:00.132Z,5.10
2022-08-19T23:30:06.370Z,5.10
2022-08-19T23:32:17.812Z,5.15
2022-08-19T23:41:33.891Z,5.22
2022-08-19T23:43:44.554Z,4.78
2022-08-19T23:45:50.972Z,4.60
2022-08-19T23:47:55.451Z,4.72
2022-08-19T23:50:00.983Z,4.88
2022-08-19T23:52:07.162Z,4.63
2022-08-19T23:54:09.491Z,4.85
2022-08-19T23:56:13.074Z,4.72
2022-08-19T23:58:17.437Z,4.72
